Time;durP1;ratioP1;P1;durP2;ratioP2;P2;SDS_P1;SDS_P2;PMS_P1;PMS_P2;Temp;Humidity;BMP_temperature;BMP_pressure;BME280_temperature;BME280_humidity;BME280_pressure;Samples;Min_cycle;Max_cycle;Signal;HPM_P1;HPM_P2
2024/02/20 00:00:33;;;;;;;59.20;28.87;;;4.40;99.90;;;;;;4129268;28;20034;-66
2024/02/20 00:02:35;;;;;;;52.90;26.70;;;4.40;99.90;;;;;;4129762;28;20100;-66
2024/02/20 00:04:36;;;;;;;59.20;28.23;;;4.40;99.90;;;;;;4129257;28;20331;-65
2024/02/20 00:06:38;;;;;;;50.60;25.50;;;4.30;99.90;;;;;;4129709;28;20084;-65
2024/02/20 00:08:40;;;;;;;52.97;26.80;;;4.30;99.90;;;;;;4128888;28;20042;-66
2024/02/20 00:10:41;;;;;;;49.63;25.10;;;4.30;99.90;;;;;;4129404;28;20023;-64
2024/02/20 00:12:44;;;;;;;46.03;23.23;;;4.20;99.90;;;;;;4128731;28;20731;-65
2024/02/20 00:14:45;;;;;;;86.40;29.50;;;4.10;99.90;;;;;;4128833;28;20076;-64
2024/02/20 00:16:47;;;;;;;67.27;26.97;;;4.00;99.90;;;;;;4129314;28;20660;-65
2024/02/20 00:18:50;;;;;;;52.87;25.93;;;3.90;99.90;;;;;;4128046;28;20359;-65
2024/02/20 00:20:51;;;;;;;54.57;27.13;;;3.90;99.90;;;;;;4129543;28;20404;-65
2024/02/20 00:22:52;;;;;;;48.83;26.77;;;3.90;99.90;;;;;;4128633;28;20668;-62
2024/02/20 00:24:54;;;;;;;50.17;26.27;;;3.90;99.90;;;;;;4128947;28;20284;-64
2024/02/20 00:26:55;;;;;;;55.80;26.53;;;3.90;99.90;;;;;;4127599;28;20284;-65
2024/02/20 00:28:58;;;;;;;48.07;25.00;;;3.90;99.90;;;;;;4129125;28;20288;-65
2024/02/20 00:30:59;;;;;;;51.03;25.63;;;4.00;99.90;;;;;;4128620;28;20334;-64
2024/02/20 00:33:01;;;;;;;55.23;26.87;;;4.00;99.90;;;;;;4129743;28;20815;-53
2024/02/20 00:35:04;;;;;;;46.23;25.20;;;4.00;99.90;;;;;;4128124;28;20260;-63
2024/02/20 00:37:05;;;;;;;52.10;25.33;;;4.00;99.90;;;;;;4130277;28;20046;-66
2024/02/20 00:39:07;;;;;;;53.63;25.57;;;4.10;99.90;;;;;;4128035;28;20296;-62
2024/02/20 00:41:08;;;;;;;48.37;23.20;;;4.10;99.90;;;;;;4129285;28;20625;-65
2024/02/20 00:43:09;;;;;;;49.60;26.23;;;4.10;99.90;;;;;;4128565;28;20583;-62
2024/02/20 00:45:11;;;;;;;41.90;22.97;;;4.20;99.90;;;;;;4128749;28;20276;-64
2024/02/20 00:47:12;;;;;;;46.07;24.67;;;4.20;99.90;;;;;;4128861;28;20307;-61
2024/02/20 00:49:13;;;;;;;43.70;23.70;;;4.20;99.90;;;;;;4128668;28;20665;-65
2024/02/20 00:51:19;;;;;;;48.30;25.87;;;4.10;99.90;;;;;;4129294;28;20287;-61
2024/02/20 00:53:20;;;;;;;48.20;24.50;;;4.00;99.90;;;;;;4126641;28;20322;-61
2024/02/20 00:55:21;;;;;;;51.90;27.80;;;4.00;99.90;;;;;;4129099;28;20288;-64
2024/02/20 00:57:23;;;;;;;46.57;25.17;;;4.00;99.90;;;;;;4127530;28;20810;-61
2024/02/20 00:59:25;;;;;;;53.50;29.17;;;3.90;99.90;;;;;;4129209;28;20276;-63
2024/02/20 01:01:27;;;;;;;56.90;29.30;;;3.90;99.90;;;;;;4127798;28;20276;-61
2024/02/20 01:03:28;;;;;;;60.83;32.17;;;3.90;99.90;;;;;;4129295;28;20268;-64
2024/02/20 01:05:29;;;;;;;53.47;32.07;;;3.90;99.90;;;;;;4127007;28;21186;-65
2024/02/20 01:07:30;;;;;;;63.53;31.47;;;3.80;99.90;;;;;;4129326;28;20747;-63
2024/02/20 01:09:32;;;;;;;55.40;31.00;;;3.70;99.90;;;;;;4128205;28;20707;-60
2024/02/20 01:11:33;;;;;;;71.50;33.53;;;3.80;99.90;;;;;;4129159;28;20713;-63
2024/02/20 01:13:34;;;;;;;65.43;32.33;;;3.70;99.90;;;;;;4128357;28;20679;-63
2024/02/20 01:15:36;;;;;;;67.90;32.53;;;3.70;99.90;;;;;;4129076;28;20295;-64
2024/02/20 01:17:37;;;;;;;58.33;31.40;;;3.60;99.90;;;;;;4128550;28;20342;-64
2024/02/20 01:19:38;;;;;;;61.13;29.90;;;3.50;99.90;;;;;;4126601;28;20276;-66
2024/02/20 01:21:40;;;;;;;53.27;30.23;;;3.50;99.90;;;;;;4128498;28;20279;-66
2024/02/20 01:23:41;;;;;;;53.53;27.43;;;3.50;99.90;;;;;;4127481;28;20756;-58
2024/02/20 01:25:42;;;;;;;49.27;26.37;;;3.40;99.90;;;;;;4128685;28;20295;-63
2024/02/20 01:27:43;;;;;;;51.93;27.07;;;3.40;99.90;;;;;;4127538;28;20760;-63
2024/02/20 01:29:45;;;;;;;68.87;26.53;;;3.40;99.90;;;;;;4131765;28;20272;-61
2024/02/20 01:31:47;;;;;;;44.63;23.63;;;3.40;99.90;;;;;;4131249;28;20264;-62
2024/02/20 01:33:49;;;;;;;49.27;25.27;;;3.40;99.90;;;;;;4132238;28;20839;-65
2024/02/20 01:35:50;;;;;;;57.13;27.23;;;3.40;99.90;;;;;;4131267;28;20288;-63
2024/02/20 01:37:51;;;;;;;53.87;27.07;;;3.50;99.90;;;;;;4132326;28;20276;-60
2024/02/20 01:39:52;;;;;;;56.50;27.20;;;3.40;99.90;;;;;;4130590;28;20288;-62
2024/02/20 01:41:57;;;;;;;64.20;29.33;;;3.40;99.90;;;;;;4131850;28;20850;-63
2024/02/20 01:43:58;;;;;;;49.77;27.20;;;3.50;99.90;;;;;;4130510;28;20280;-63
2024/02/20 01:45:59;;;;;;;49.27;26.43;;;3.40;99.90;;;;;;4130206;28;20857;-60
2024/02/20 01:48:03;;;;;;;55.03;27.87;;;3.40;99.90;;;;;;4131052;28;20334;-58
2024/02/20 01:50:06;;;;;;;49.67;27.27;;;3.40;99.90;;;;;;4122167;28;20267;-61
2024/02/20 01:52:12;;;;;;;56.17;29.13;;;3.40;99.90;;;;;;4131523;28;20675;-60
2024/02/20 01:54:13;;;;;;;49.80;27.27;;;3.40;99.90;;;;;;4130792;28;20265;-65
2024/02/20 01:56:17;;;;;;;46.97;25.50;;;3.40;99.90;;;;;;4130688;28;20664;-62
2024/02/20 01:58:19;;;;;;;43.63;25.03;;;3.40;99.90;;;;;;4129749;28;20354;-63
2024/02/20 02:00:22;;;;;;;49.73;25.87;;;3.30;99.90;;;;;;4131721;28;20260;-61
2024/02/20 02:02:24;;;;;;;43.87;24.73;;;3.40;99.90;;;;;;4130689;28;20318;-64
2024/02/20 02:04:25;;;;;;;41.93;23.93;;;3.40;99.90;;;;;;4131808;28;20256;-60
2024/02/20 02:06:29;;;;;;;47.63;25.20;;;3.40;99.90;;;;;;4130564;28;20719;-64
2024/02/20 02:08:31;;;;;;;42.33;24.10;;;3.40;99.90;;;;;;4131410;28;20276;-65
2024/02/20 02:10:32;;;;;;;49.27;26.03;;;3.40;99.90;;;;;;4130476;28;21034;-60
2024/02/20 02:12:33;;;;;;;45.47;25.53;;;3.50;99.90;;;;;;4132088;28;20326;-63
2024/02/20 02:14:34;;;;;;;47.70;25.53;;;3.50;99.90;;;;;;4130342;28;20277;-62
2024/02/20 02:16:38;;;;;;;46.13;24.33;;;3.50;99.90;;;;;;4130641;28;20303;-65
2024/02/20 02:18:40;;;;;;;45.17;26.13;;;3.50;99.90;;;;;;4130689;28;20327;-63
2024/02/20 02:20:41;;;;;;;48.47;26.87;;;3.60;99.90;;;;;;4131539;28;20299;-58
2024/02/20 02:22:42;;;;;;;45.53;23.13;;;3.60;99.90;;;;;;4130664;28;20712;-64
2024/02/20 02:24:43;;;;;;;44.23;24.90;;;3.70;99.90;;;;;;4130786;28;20252;-61
2024/02/20 02:26:45;;;;;;;45.77;23.63;;;3.70;99.90;;;;;;4130975;28;20330;-64
2024/02/20 02:28:47;;;;;;;47.73;23.53;;;3.70;99.90;;;;;;4130594;28;20280;-64
2024/02/20 02:30:49;;;;;;;43.40;22.80;;;3.60;99.90;;;;;;4131114;28;20272;-61
2024/02/20 02:32:50;;;;;;;39.43;23.40;;;3.60;99.90;;;;;;4130187;28;20664;-57
2024/02/20 02:34:51;;;;;;;40.20;21.90;;;3.60;99.90;;;;;;4131644;28;20672;-63
2024/02/20 02:36:53;;;;;;;43.03;21.67;;;3.60;99.90;;;;;;4130528;28;20678;-63
2024/02/20 02:38:55;;;;;;;41.43;22.00;;;3.60;99.90;;;;;;4130997;28;20379;-64
2024/02/20 02:40:56;;;;;;;40.83;22.10;;;3.60;99.90;;;;;;4129381;28;20337;-64
2024/02/20 02:42:57;;;;;;;41.00;23.20;;;3.60;99.90;;;;;;4130310;28;20276;-63
2024/02/20 02:44:58;;;;;;;38.50;21.33;;;3.60;99.90;;;;;;4130377;28;20346;-64
2024/02/20 02:47:00;;;;;;;42.83;21.60;;;3.60;99.90;;;;;;4131302;28;20668;-64
2024/02/20 02:49:01;;;;;;;42.20;22.20;;;3.60;99.90;;;;;;4130243;28;20387;-65
2024/02/20 02:51:02;;;;;;;41.03;22.00;;;3.60;99.90;;;;;;4131317;28;20318;-60
2024/02/20 02:53:04;;;;;;;38.70;22.00;;;3.60;99.90;;;;;;4129851;28;20264;-63
2024/02/20 02:55:05;;;;;;;47.37;22.77;;;3.50;99.90;;;;;;4130029;28;20814;-66
2024/02/20 02:57:07;;;;;;;44.17;22.17;;;3.50;99.90;;;;;;4130114;28;20252;-64
2024/02/20 02:59:09;;;;;;;45.23;21.73;;;3.50;99.90;;;;;;4129659;28;20366;-65
2024/02/20 03:01:12;;;;;;;37.90;21.43;;;3.50;99.90;;;;;;4131002;28;20323;-60
2024/02/20 03:03:14;;;;;;;44.73;21.30;;;3.50;99.90;;;;;;4129737;28;20311;-61
2024/02/20 03:05:18;;;;;;;37.97;20.87;;;3.50;99.90;;;;;;4130203;28;20268;-64
2024/02/20 03:07:19;;;;;;;39.33;21.63;;;3.60;99.90;;;;;;4129875;28;20834;-64
2024/02/20 03:09:21;;;;;;;33.53;20.40;;;3.70;99.90;;;;;;4130452;28;21050;-62
2024/02/20 03:11:23;;;;;;;32.30;19.50;;;3.70;99.90;;;;;;4129310;28;20712;-63
2024/02/20 03:13:24;;;;;;;38.20;20.30;;;3.70;99.90;;;;;;4114767;28;20261;-63
2024/02/20 03:15:25;;;;;;;37.30;20.23;;;3.80;99.90;;;;;;4121067;28;20303;-62
2024/02/20 03:17:26;;;;;;;34.07;18.93;;;3.80;99.90;;;;;;4130691;28;20264;-58
2024/02/20 03:19:28;;;;;;;35.77;20.23;;;3.80;99.90;;;;;;4129706;28;20300;-65
2024/02/20 03:21:30;;;;;;;38.70;21.73;;;3.80;99.90;;;;;;4130560;28;20288;-62
2024/02/20 03:23:32;;;;;;;39.00;21.63;;;3.90;99.90;;;;;;4129612;28;20733;-64
2024/02/20 03:25:33;;;;;;;38.43;20.23;;;4.00;99.90;;;;;;4129062;28;20339;-64
2024/02/20 03:27:37;;;;;;;46.00;21.77;;;4.00;99.90;;;;;;4129408;28;20355;-63
2024/02/20 03:29:38;;;;;;;36.50;20.20;;;4.00;99.90;;;;;;4129239;28;20349;-65
2024/02/20 03:31:39;;;;;;;39.57;20.97;;;4.00;99.90;;;;;;4130331;28;20268;-64
2024/02/20 03:33:41;;;;;;;38.93;21.43;;;4.00;99.90;;;;;;4129390;28;20272;-65
2024/02/20 03:35:42;;;;;;;41.77;21.53;;;4.00;99.90;;;;;;4130275;28;20272;-64
2024/02/20 03:37:43;;;;;;;32.43;19.77;;;4.10;99.90;;;;;;4129514;28;20272;-64
2024/02/20 03:39:45;;;;;;;39.03;20.67;;;4.10;99.90;;;;;;4129536;28;20366;-65
2024/02/20 03:41:46;;;;;;;35.87;20.17;;;4.10;99.90;;;;;;4129218;28;20280;-61
2024/02/20 03:43:47;;;;;;;39.13;22.40;;;4.10;99.90;;;;;;4128466;28;20292;-56
2024/02/20 03:45:49;;;;;;;43.33;22.93;;;4.10;99.90;;;;;;4129073;28;20284;-64
2024/02/20 03:47:50;;;;;;;38.87;22.63;;;4.10;99.90;;;;;;4130525;28;20684;-61
2024/02/20 03:49:51;;;;;;;38.83;21.50;;;4.10;99.90;;;;;;4128437;28;20275;-65
2024/02/20 03:51:52;;;;;;;40.50;21.93;;;4.10;99.90;;;;;;4129698;28;20275;-64
2024/02/20 03:53:53;;;;;;;40.33;22.23;;;4.10;99.90;;;;;;4128762;28;20260;-64
2024/02/20 03:55:55;;;;;;;39.37;21.73;;;4.00;99.90;;;;;;4129779;28;20276;-62
2024/02/20 03:57:57;;;;;;;43.63;22.67;;;4.00;99.90;;;;;;4128813;28;20264;-63
2024/02/20 03:59:58;;;;;;;43.70;21.47;;;4.00;99.90;;;;;;4128690;28;20849;-65
2024/02/20 04:02:00;;;;;;;36.83;22.97;;;4.00;99.90;;;;;;4129163;28;20272;-59
2024/02/20 04:04:01;;;;;;;45.57;24.33;;;4.00;99.90;;;;;;4128890;28;20263;-64
2024/02/20 04:06:02;;;;;;;44.27;23.20;;;3.90;99.90;;;;;;4129377;28;20780;-62
2024/02/20 04:08:04;;;;;;;40.33;21.33;;;3.90;99.90;;;;;;4128746;28;20684;-64
2024/02/20 04:10:11;;;;;;;39.70;22.93;;;3.80;99.90;;;;;;4129599;28;20256;-64
2024/02/20 04:12:12;;;;;;;38.77;21.83;;;3.70;99.90;;;;;;4128833;28;20280;-65
2024/02/20 04:14:13;;;;;;;41.47;21.93;;;3.70;99.90;;;;;;4129927;28;20272;-63
2024/02/20 04:16:14;;;;;;;36.83;21.77;;;3.60;99.90;;;;;;4128397;28;20764;-67
2024/02/20 04:18:15;;;;;;;36.30;21.97;;;3.60;99.90;;;;;;4129180;28;20264;-63
2024/02/20 04:20:17;;;;;;;40.00;22.30;;;3.50;99.90;;;;;;4128927;28;20272;-65
2024/02/20 04:22:18;;;;;;;40.40;21.90;;;3.60;99.90;;;;;;4129704;28;20668;-64
2024/02/20 04:34:54;;;;;;;39.03;23.02;;;3.50;99.90;;;;;;4208099;27;20461;-59
2024/02/20 04:36:56;;;;;;;40.90;23.03;;;3.60;99.90;;;;;;4207577;28;20438;-63
2024/02/20 04:38:58;;;;;;;50.27;23.10;;;3.60;99.90;;;;;;4209121;28;20256;-64
2024/02/20 04:40:59;;;;;;;41.33;23.07;;;3.60;99.90;;;;;;4207420;28;20269;-64
2024/02/20 04:43:00;;;;;;;43.60;23.60;;;3.60;99.90;;;;;;4208557;28;20350;-61
2024/02/20 04:45:02;;;;;;;46.70;24.63;;;3.50;99.90;;;;;;4207711;28;20268;-64
2024/02/20 04:47:07;;;;;;;47.70;25.00;;;3.50;99.90;;;;;;4208591;28;20323;-63
2024/02/20 04:49:08;;;;;;;42.10;24.07;;;3.50;99.90;;;;;;4208010;28;20281;-64
2024/02/20 04:51:09;;;;;;;49.83;26.43;;;3.50;99.90;;;;;;4209213;28;20277;-64
2024/02/20 04:53:10;;;;;;;49.87;25.97;;;3.50;99.90;;;;;;4207929;28;20277;-63
2024/02/20 04:55:12;;;;;;;43.67;25.30;;;3.50;99.90;;;;;;4208406;28;20798;-64
2024/02/20 04:57:13;;;;;;;41.63;25.17;;;3.50;99.90;;;;;;4207920;28;20786;-60
2024/02/20 04:59:14;;;;;;;45.23;25.23;;;3.40;99.90;;;;;;4207938;28;20266;-64
2024/02/20 05:01:16;;;;;;;44.17;25.57;;;3.40;99.90;;;;;;4207391;28;20253;-60
2024/02/20 05:03:18;;;;;;;44.90;23.93;;;3.40;99.90;;;;;;4207374;28;20873;-62
2024/02/20 05:05:20;;;;;;;41.80;23.10;;;3.40;99.90;;;;;;4206349;28;20277;-67
2024/02/20 05:07:21;;;;;;;43.77;23.30;;;3.40;99.90;;;;;;4208341;28;20771;-67
2024/02/20 05:09:22;;;;;;;46.00;24.07;;;3.50;99.90;;;;;;4208042;28;20319;-63
2024/02/20 05:11:23;;;;;;;42.47;24.17;;;3.50;99.90;;;;;;4207389;28;20253;-64
2024/02/20 05:13:25;;;;;;;39.33;23.10;;;3.50;99.90;;;;;;4208424;28;20322;-62
2024/02/20 05:15:26;;;;;;;41.00;21.97;;;3.50;99.90;;;;;;4206695;28;20870;-65
2024/02/20 05:17:27;;;;;;;41.10;22.60;;;3.50;99.90;;;;;;4208622;28;20269;-64
2024/02/20 05:19:28;;;;;;;38.37;22.60;;;3.50;99.90;;;;;;4207201;28;20680;-65
2024/02/20 05:21:29;;;;;;;43.33;23.83;;;3.60;99.90;;;;;;4207690;28;20342;-58
2024/02/20 05:23:31;;;;;;;39.37;22.27;;;3.60;99.90;;;;;;4207332;28;20296;-60
2024/02/20 05:25:32;;;;;;;38.83;22.67;;;3.70;99.90;;;;;;4208122;28;20273;-63
2024/02/20 05:27:33;;;;;;;41.43;22.73;;;3.70;99.90;;;;;;4207394;28;20295;-61
2024/02/20 05:29:34;;;;;;;37.97;22.00;;;3.70;99.90;;;;;;4207632;28;20334;-62
2024/02/20 05:31:35;;;;;;;38.33;20.93;;;3.70;99.90;;;;;;4207274;28;20727;-61
2024/02/20 05:33:37;;;;;;;42.87;24.27;;;3.80;99.90;;;;;;4206809;28;20289;-60
2024/02/20 05:35:38;;;;;;;40.70;23.13;;;3.80;99.90;;;;;;4196647;28;20303;-60
2024/02/20 05:37:39;;;;;;;48.03;24.63;;;3.80;99.90;;;;;;4195067;28;20652;-61
2024/02/20 05:39:40;;;;;;;46.20;23.40;;;3.80;99.90;;;;;;4196315;28;20278;-60
2024/02/20 05:41:41;;;;;;;46.83;25.10;;;3.80;99.90;;;;;;4194859;28;20289;-58
2024/02/20 05:43:43;;;;;;;42.30;23.13;;;3.80;99.90;;;;;;4196342;28;20355;-60
2024/02/20 05:45:44;;;;;;;39.63;23.23;;;3.80;99.90;;;;;;4194800;28;20286;-60
2024/02/20 05:47:45;;;;;;;37.53;21.90;;;3.90;99.90;;;;;;4196369;28;20677;-59
2024/02/20 05:49:46;;;;;;;40.87;22.73;;;3.90;99.90;;;;;;4195161;28;20265;-61
2024/02/20 05:51:48;;;;;;;39.80;21.83;;;3.90;99.90;;;;;;4196371;28;20281;-60
2024/02/20 05:53:52;;;;;;;45.27;22.60;;;4.00;99.90;;;;;;4195294;28;20684;-58
2024/02/20 05:55:54;;;;;;;60.53;31.73;;;3.90;99.90;;;;;;4195935;28;20327;-60
2024/02/20 05:57:55;;;;;;;54.17;28.57;;;4.00;99.90;;;;;;4195038;28;20415;-63
2024/02/20 05:59:56;;;;;;;45.20;25.17;;;4.00;99.90;;;;;;4195664;28;20303;-59
2024/02/20 06:01:57;;;;;;;50.20;27.20;;;3.90;99.90;;;;;;4196048;28;20339;-61
2024/02/20 06:04:04;;;;;;;52.27;27.17;;;3.90;99.90;;;;;;4195434;28;20331;-64
2024/02/20 06:06:06;;;;;;;56.23;27.87;;;3.90;99.90;;;;;;4195920;28;20669;-62
2024/02/20 06:08:08;;;;;;;42.33;23.63;;;3.90;99.90;;;;;;4195803;28;20024;-65
2024/02/20 06:10:09;;;;;;;44.83;23.73;;;3.90;99.90;;;;;;4195730;28;20274;-56
2024/02/20 06:12:10;;;;;;;49.00;25.37;;;3.90;99.90;;;;;;4194611;28;20270;-56
2024/02/20 06:14:11;;;;;;;46.03;25.03;;;3.90;99.90;;;;;;4194915;28;20303;-60
2024/02/20 06:16:13;;;;;;;44.33;25.57;;;4.00;99.90;;;;;;4193399;28;20265;-63
2024/02/20 06:18:14;;;;;;;47.27;24.97;;;3.90;99.90;;;;;;4194778;28;20078;-59
2024/02/20 06:20:15;;;;;;;40.67;23.37;;;4.00;99.90;;;;;;4194351;28;20273;-56
2024/02/20 06:22:16;;;;;;;48.23;25.97;;;4.00;99.90;;;;;;4195653;28;20749;-56
2024/02/20 06:24:17;;;;;;;41.07;23.80;;;4.00;99.90;;;;;;4194334;28;20297;-58
2024/02/20 06:26:19;;;;;;;44.20;23.90;;;4.00;99.90;;;;;;4195385;28;20331;-62
2024/02/20 06:28:20;;;;;;;40.60;22.10;;;4.00;99.90;;;;;;4194209;28;20307;-58
2024/02/20 06:30:22;;;;;;;41.43;22.57;;;3.90;99.90;;;;;;4195743;28;20266;-58
2024/02/20 06:32:23;;;;;;;40.93;23.03;;;3.80;99.90;;;;;;4195058;28;20274;-61
2024/02/20 06:34:24;;;;;;;44.07;23.97;;;3.80;99.90;;;;;;4195577;28;20326;-57
2024/02/20 06:36:26;;;;;;;40.70;22.97;;;3.70;99.90;;;;;;4195790;28;20319;-62
2024/02/20 06:38:31;;;;;;;38.93;22.60;;;3.70;99.90;;;;;;4195315;28;20902;-61
2024/02/20 06:40:32;;;;;;;41.10;22.30;;;3.60;99.90;;;;;;4195655;28;20749;-57
2024/02/20 06:42:34;;;;;;;38.40;21.67;;;3.60;99.90;;;;;;4194775;28;20261;-59
2024/02/20 06:44:35;;;;;;;43.97;23.67;;;3.60;99.90;;;;;;4195764;28;20710;-59
2024/02/20 06:46:39;;;;;;;46.67;24.17;;;3.60;99.90;;;;;;4193644;28;20282;-60
2024/02/20 06:48:43;;;;;;;38.80;23.47;;;3.60;99.90;;;;;;4196035;28;20270;-60
2024/02/20 06:50:45;;;;;;;40.63;23.13;;;3.60;99.90;;;;;;4194925;28;20328;-60
2024/02/20 06:52:46;;;;;;;40.50;22.17;;;3.60;99.90;;;;;;4195780;28;20261;-59
2024/02/20 06:54:48;;;;;;;38.37;24.23;;;3.60;99.90;;;;;;4194728;28;20277;-55
2024/02/20 06:56:49;;;;;;;45.00;22.60;;;3.60;99.90;;;;;;4195756;28;20334;-59
2024/02/20 06:58:50;;;;;;;44.47;24.63;;;3.60;99.90;;;;;;4194142;28;20664;-61
2024/02/20 07:00:51;;;;;;;39.77;22.60;;;3.60;99.90;;;;;;4195691;28;20273;-60
2024/02/20 07:02:53;;;;;;;41.47;22.77;;;3.60;99.90;;;;;;4194420;28;20783;-59
2024/02/20 07:04:54;;;;;;;46.83;23.10;;;3.60;99.90;;;;;;4194971;28;20290;-58
2024/02/20 07:06:56;;;;;;;40.30;22.97;;;3.60;99.90;;;;;;4194808;28;20314;-56
2024/02/20 07:08:58;;;;;;;37.97;21.87;;;3.60;99.90;;;;;;4195454;28;20261;-61
2024/02/20 07:10:59;;;;;;;33.10;20.23;;;3.60;99.90;;;;;;4194737;28;20277;-59
2024/02/20 07:13:00;;;;;;;40.60;22.87;;;3.60;99.90;;;;;;4194255;28;20371;-59
2024/02/20 07:15:03;;;;;;;41.73;22.97;;;3.60;99.90;;;;;;4195338;28;20328;-61
2024/02/20 07:17:04;;;;;;;44.13;25.83;;;3.60;99.90;;;;;;4194263;28;20382;-61
2024/02/20 07:19:05;;;;;;;47.70;25.37;;;3.60;99.90;;;;;;4195099;28;20795;-61
2024/02/20 07:21:07;;;;;;;43.37;26.47;;;3.70;99.90;;;;;;4193911;28;20824;-58
2024/02/20 07:23:08;;;;;;;54.23;32.20;;;3.70;99.90;;;;;;4195178;28;20277;-55
2024/02/20 07:25:10;;;;;;;51.17;29.43;;;3.70;99.90;;;;;;4193770;28;20786;-55
2024/02/20 07:27:12;;;;;;;43.90;26.17;;;3.70;99.90;;;;;;4195086;28;20590;-62
2024/02/20 07:29:18;;;;;;;43.10;26.80;;;3.80;99.90;;;;;;4194408;28;20322;-60
2024/02/20 07:31:23;;;;;;;43.47;25.13;;;3.70;99.90;;;;;;4195248;28;20324;-58
2024/02/20 07:33:26;;;;;;;45.30;25.97;;;3.80;99.90;;;;;;4193645;28;20732;-56
2024/02/20 07:35:27;;;;;;;44.87;24.77;;;3.80;99.90;;;;;;4195123;28;20282;-59
2024/02/20 07:37:28;;;;;;;40.17;24.30;;;3.80;99.90;;;;;;4194389;28;20676;-56
2024/02/20 07:39:29;;;;;;;42.83;24.43;;;3.80;99.90;;;;;;4194868;28;20326;-61
2024/02/20 07:41:30;;;;;;;37.17;22.63;;;3.90;99.90;;;;;;4194376;28;20664;-63
2024/02/20 07:43:32;;;;;;;37.23;21.20;;;3.90;99.90;;;;;;4194301;28;20399;-60
2024/02/20 07:45:33;;;;;;;36.40;22.13;;;4.00;99.90;;;;;;4194614;28;20692;-59
2024/02/20 07:47:35;;;;;;;39.33;22.37;;;4.00;99.90;;;;;;4193903;28;20323;-61
2024/02/20 07:49:36;;;;;;;39.23;23.37;;;4.10;99.90;;;;;;4194692;28;20322;-63
2024/02/20 07:51:37;;;;;;;34.87;21.20;;;4.20;99.90;;;;;;4193369;28;20624;-61
2024/02/20 07:53:39;;;;;;;41.70;22.63;;;4.20;99.90;;;;;;4194854;28;20257;-62
2024/02/20 07:55:43;;;;;;;37.90;20.07;;;4.30;99.90;;;;;;4193238;28;20273;-59
2024/02/20 07:57:44;;;;;;;36.43;22.07;;;4.30;99.90;;;;;;4194431;28;20799;-57
2024/02/20 07:59:45;;;;;;;40.13;22.77;;;4.40;99.90;;;;;;4193372;28;20269;-62
2024/02/20 08:01:51;;;;;;;35.60;21.50;;;4.40;99.90;;;;;;4194471;28;20310;-60
2024/02/20 08:03:53;;;;;;;38.20;21.23;;;4.40;99.90;;;;;;4193416;28;20366;-56
2024/02/20 08:05:54;;;;;;;40.50;22.53;;;4.40;99.90;;;;;;4194536;28;20269;-57
2024/02/20 08:07:55;;;;;;;40.33;22.90;;;4.50;99.90;;;;;;4194047;28;20360;-62
2024/02/20 08:09:57;;;;;;;45.83;23.37;;;4.40;99.90;;;;;;4194239;28;20407;-58
2024/02/20 08:11:58;;;;;;;37.40;22.37;;;4.50;99.90;;;;;;4193867;28;20718;-56
2024/02/20 08:13:59;;;;;;;40.60;23.30;;;4.40;99.90;;;;;;4193987;28;20323;-59
2024/02/20 08:16:01;;;;;;;38.80;23.60;;;4.40;99.90;;;;;;4194217;28;20707;-58
2024/02/20 08:18:04;;;;;;;41.53;23.30;;;4.40;99.90;;;;;;4193783;28;20681;-59
2024/02/20 08:20:05;;;;;;;41.00;24.27;;;4.50;99.90;;;;;;4193773;28;20273;-60
2024/02/20 08:22:07;;;;;;;40.03;23.17;;;4.60;99.90;;;;;;4193556;28;20272;-61
2024/02/20 08:24:08;;;;;;;40.43;22.73;;;4.60;99.90;;;;;;4194441;28;20301;-59
2024/02/20 08:26:09;;;;;;;40.60;23.60;;;4.70;99.90;;;;;;4193403;28;20266;-58
2024/02/20 08:28:11;;;;;;;40.17;25.20;;;4.80;99.90;;;;;;4194869;28;20761;-56
2024/02/20 08:30:12;;;;;;;38.30;22.67;;;4.90;99.90;;;;;;4193411;28;20342;-59
2024/02/20 08:32:14;;;;;;;38.87;22.57;;;5.00;99.90;;;;;;4194409;28;20274;-58
2024/02/20 08:34:15;;;;;;;38.57;21.43;;;5.10;99.90;;;;;;4193592;28;20041;-60
2024/02/20 08:36:17;;;;;;;43.57;23.67;;;5.20;99.90;;;;;;4194739;28;20094;-62
2024/02/20 08:38:18;;;;;;;36.17;21.97;;;5.30;99.90;;;;;;4193918;28;20041;-59
2024/02/20 08:40:20;;;;;;;39.50;19.80;;;5.50;99.90;;;;;;4194264;28;20352;-61
2024/02/20 08:42:21;;;;;;;29.77;18.23;;;5.50;99.90;;;;;;4193733;28;20033;-61
2024/02/20 08:44:24;;;;;;;27.93;17.77;;;5.50;99.90;;;;;;4194177;28;20489;-62
2024/02/20 08:46:25;;;;;;;31.17;18.43;;;5.50;99.90;;;;;;4193516;28;20078;-60
2024/02/20 08:48:26;;;;;;;29.33;17.27;;;5.70;99.90;;;;;;4193737;28;20101;-60
2024/02/20 08:50:28;;;;;;;28.47;17.97;;;5.80;99.90;;;;;;4194001;28;20441;-57
2024/02/20 08:52:29;;;;;;;33.07;19.70;;;5.90;99.90;;;;;;4193517;28;20040;-60
2024/02/20 08:54:30;;;;;;;29.60;18.53;;;6.00;99.90;;;;;;4194178;28;20079;-57
2024/02/20 08:56:32;;;;;;;32.50;19.13;;;6.00;99.90;;;;;;4193105;28;20090;-62
2024/02/20 08:58:33;;;;;;;30.73;18.93;;;6.10;99.90;;;;;;4194594;28;20078;-60
2024/02/20 09:00:34;;;;;;;33.67;20.77;;;6.20;99.90;;;;;;4193430;28;20581;-62
2024/02/20 09:02:36;;;;;;;31.70;17.53;;;6.30;99.90;;;;;;4193922;28;20025;-58
2024/02/20 09:04:37;;;;;;;30.90;18.17;;;6.40;99.90;;;;;;4193056;28;20052;-62
2024/02/20 09:06:44;;;;;;;33.17;18.30;;;6.40;99.90;;;;;;4194093;28;20146;-61
2024/02/20 09:08:45;;;;;;;27.17;16.43;;;6.60;99.90;;;;;;4193697;28;20541;-61
2024/02/20 09:10:46;;;;;;;29.37;18.43;;;6.70;99.90;;;;;;4196452;28;20025;-60
2024/02/20 09:12:48;;;;;;;31.00;16.07;;;6.80;99.90;;;;;;4196363;28;20137;-62
2024/02/20 09:14:49;;;;;;;23.50;15.17;;;7.00;99.90;;;;;;4197123;28;20094;-62
2024/02/20 09:16:50;;;;;;;30.73;17.27;;;7.40;99.90;;;;;;4196263;28;20067;-58
2024/02/20 09:18:51;;;;;;;27.57;16.03;;;7.80;99.90;;;;;;4196783;28;20041;-59
2024/02/20 09:20:52;;;;;;;30.53;16.67;;;7.80;99.90;;;;;;4196463;28;20166;-61
2024/02/20 09:22:54;;;;;;;26.33;16.77;;;7.90;99.90;;;;;;4195876;28;20523;-61
2024/02/20 09:24:55;;;;;;;25.93;14.90;;;8.10;99.90;;;;;;4196560;28;20045;-59
2024/02/20 09:26:57;;;;;;;26.40;15.90;;;8.20;99.90;;;;;;4195454;28;20036;-60
2024/02/20 09:28:58;;;;;;;26.90;16.27;;;7.90;99.90;;;;;;4196711;28;20036;-59
2024/02/20 09:30:59;;;;;;;29.07;17.20;;;7.80;99.90;;;;;;4195633;28;20024;-57
2024/02/20 09:33:00;;;;;;;25.23;15.67;;;7.70;99.90;;;;;;4196894;28;20057;-60
2024/02/20 09:35:01;;;;;;;30.07;17.23;;;7.50;99.90;;;;;;4195571;28;20041;-60
2024/02/20 09:37:03;;;;;;;28.57;17.10;;;7.40;99.90;;;;;;4196969;28;20040;-62
2024/02/20 09:39:04;;;;;;;31.77;18.13;;;7.20;99.90;;;;;;4196140;28;20040;-61
2024/02/20 09:41:10;;;;;;;30.60;18.30;;;7.10;99.90;;;;;;4196909;28;20040;-62
2024/02/20 09:43:17;;;;;;;32.37;18.93;;;7.10;99.90;;;;;;4195226;28;20044;-59
2024/02/20 09:45:19;;;;;;;29.87;17.63;;;7.00;99.90;;;;;;4196666;28;20445;-60
2024/02/20 09:47:24;;;;;;;28.37;17.37;;;6.90;99.90;;;;;;4195783;28;20480;-57
2024/02/20 09:49:27;;;;;;;32.47;17.27;;;6.90;99.90;;;;;;4196268;28;20480;-58
2024/02/20 09:51:30;;;;;;;32.47;19.80;;;7.00;99.90;;;;;;4195628;28;20032;-62
2024/02/20 09:53:34;;;;;;;35.47;18.87;;;7.10;99.90;;;;;;4196018;28;20467;-55
2024/02/20 09:55:35;;;;;;;27.17;16.67;;;7.20;99.90;;;;;;4195885;28;20457;-62
2024/02/20 09:57:37;;;;;;;29.00;17.33;;;7.20;99.90;;;;;;4195740;28;20021;-60
2024/02/20 09:59:38;;;;;;;29.97;18.07;;;7.20;99.90;;;;;;4196118;28;20024;-61
2024/02/20 10:01:39;;;;;;;30.07;16.83;;;7.10;99.90;;;;;;4195101;28;20020;-56
2024/02/20 10:03:41;;;;;;;27.10;15.60;;;7.20;99.90;;;;;;4196640;28;20053;-60
2024/02/20 10:05:45;;;;;;;30.83;14.50;;;7.30;99.90;;;;;;4195173;28;20513;-60
2024/02/20 10:07:46;;;;;;;26.97;14.73;;;7.30;99.90;;;;;;4196573;28;20094;-61
2024/02/20 10:09:48;;;;;;;23.40;15.07;;;7.40;99.90;;;;;;4195424;28;20489;-57
2024/02/20 10:11:50;;;;;;;26.60;13.13;;;7.40;99.90;;;;;;4196240;28;20033;-59
2024/02/20 10:13:52;;;;;;;23.87;13.80;;;7.50;99.90;;;;;;4195169;28;20106;-63
2024/02/20 10:16:15;;;;;;;25.57;13.73;;;7.60;99.90;;;;;;4196368;28;20419;-58
2024/02/20 10:18:19;;;;;;;22.10;12.77;;;7.70;99.90;;;;;;4195020;28;20036;-61
2024/02/20 10:20:23;;;;;;;24.93;14.67;;;7.80;99.90;;;;;;4196176;28;20503;-61
2024/02/20 10:22:24;;;;;;;18.07;12.37;;;7.90;99.90;;;;;;4195302;28;20844;-62
2024/02/20 10:24:26;;;;;;;19.80;11.40;;;8.00;99.90;;;;;;4196304;28;20044;-62
2024/02/20 10:26:31;;;;;;;22.87;13.60;;;8.10;99.90;;;;;;4195242;28;20033;-59
2024/02/20 10:28:32;;;;;;;16.20;11.17;;;8.20;99.90;;;;;;4196021;28;20096;-61
2024/02/20 10:30:34;;;;;;;19.07;12.10;;;8.20;99.90;;;;;;4194747;28;20526;-60
2024/02/20 10:32:38;;;;;;;23.33;12.83;;;8.30;99.90;;;;;;4195758;28;20032;-62
2024/02/20 10:34:39;;;;;;;18.90;11.80;;;8.40;99.90;;;;;;4194849;28;20388;-59